Radar is unstable, so pay attention to the date and time in the image

Latest  Newer  Older  Last 2 hours animation  Current image  Latest image  Summary per 24h (testing)  Summary per 7d (testing) 
Cloud coverage sat images  Infrared sat images 
Real-time lightning map

All time is UTC (add 2 hours in wintertime, 3 hours in DST for Latvia local time)

2020/02/22 21:20 EVRA 222120Z 22012KT 200V260 CAVOK 04/00 Q0991 R18/290195 NOSIG
2020/02/22 21:20 EVLA 222120Z AUTO 25023KT 9999 FEW027/// 05/03 Q0993
2020/02/22 21:20 EVVA 222120Z AUTO 25024G38KT CAVOK 05/03 Q0989
2020/02/22 21:20 EYKA 222120Z 24016G27KT 210V290 9999 -SHRA FEW029CB SCT039 OVC093 06/02 Q0999 R08/290095
2020/02/22 21:20 EYPA 222120Z AUTO 26012G27KT 220V310 9999 BKN020/// 06/03 Q0996
2020/02/22 21:20 EYSA 222120Z 23016KT 9999 FEW018 BKN024 BKN032 05/03 Q0995 R14L/29//95 R14R/29//95 WHT TEMPO SCT025 BLU
2020/02/22 21:20 EYVI 222120Z 23015KT 9999 -SHRA BKN031CB 05/02 Q1000 R19/2///95 NOSIG
2020/02/22 08:50 EEKA 220850Z 20016KT 160V240 9000 RA BKN009 OVC016 05/04 Q0995
2020/02/22 20:50 EEKE 222050Z AUTO 26017G32KT 210V300 9999NDV FEW036 OVC043 05/01 Q0984
2020/02/22 13:50 EEPU 221350Z 19020G36KT 160V230 3600 -RA BR BKN008 OVC014 04/03 Q0991
2020/02/22 21:20 EETN 222120Z 24015KT 9999 -SHRA BKN009 FEW015CB BKN030 02/01 Q0978 R08/290295 TEMPO 26020G30KT
2020/02/22 20:50 EETU 222050Z AUTO 22020KT 9999 BKN011/// BKN015/// OVC026/// 03/02 Q0984 REDZ
   RIGA AIRPORT     EVRA               56 55N  023 58E   10   X     T          6 LV
   LIEPAJA INTL     EVLA        26406  56 31N  021 06E    4   X                8 LV
   VENTPILS         EVVA               57 21N  021 33E    6   X                8 LV
   KAUNAS           EYKA               54 54N  023 55E   77   X     T          6 LT
   PALANGA INTL     EYPA               55 55N  021 03E   10   X                6 LT
   SIAULIAI INTL    EYSA               55 54N  023 24E  135   X     T          6 LT
   VILNIUS INTL     EYVI        26730  54 38N  025 17E  197   X     T          6 LT
   KARDLA           EEKA        26116  58 59N  022 50E    4   X                8 EE
   KURESSAARE       EEKE               58 14N  022 31E    4   X                8 EE
   PARNU            EEPU               58 25N  024 28E   14   X                8 EE
   TALLINN          EETN        26038  59 24N  024 49E   40   X     T          8 EE
   TARTU            EETU               58 19N  026 41E   67   X                8 EE

rain/snow radar image from www.meteo.lv and METAR data from weather.noaa.gov